sensor_id;sensor_type;location;lat;lon;timestamp;P1;durP1;ratioP1;P2;durP2;ratioP2
23155;SDS011;11746;50.876;4.246;2024-02-21T00:01:32;20.58;;;7.50;;
23155;SDS011;11746;50.876;4.246;2024-02-21T00:03:57;17.75;;;7.07;;
23155;SDS011;11746;50.876;4.246;2024-02-21T00:06:25;24.23;;;7.43;;
23155;SDS011;11746;50.876;4.246;2024-02-21T00:08:51;18.95;;;7.38;;
23155;SDS011;11746;50.876;4.246;2024-02-21T00:11:17;22.60;;;8.07;;
23155;SDS011;11746;50.876;4.246;2024-02-21T00:13:42;20.50;;;8.32;;
23155;SDS011;11746;50.876;4.246;2024-02-21T00:16:08;20.85;;;6.90;;
23155;SDS011;11746;50.876;4.246;2024-02-21T00:18:36;15.70;;;7.10;;
23155;SDS011;11746;50.876;4.246;2024-02-21T00:21:02;16.38;;;7.10;;
23155;SDS011;11746;50.876;4.246;2024-02-21T00:23:30;15.95;;;7.10;;
23155;SDS011;11746;50.876;4.246;2024-02-21T00:25:55;17.05;;;7.70;;
23155;SDS011;11746;50.876;4.246;2024-02-21T00:28:21;20.10;;;7.45;;
23155;SDS011;11746;50.876;4.246;2024-02-21T00:30:46;13.13;;;7.15;;
23155;SDS011;11746;50.876;4.246;2024-02-21T00:33:13;20.42;;;7.45;;
23155;SDS011;11746;50.876;4.246;2024-02-21T00:35:41;18.05;;;6.43;;
23155;SDS011;11746;50.876;4.246;2024-02-21T00:38:07;18.20;;;7.35;;
23155;SDS011;11746;50.876;4.246;2024-02-21T00:40:32;17.65;;;7.35;;
23155;SDS011;11746;50.876;4.246;2024-02-21T00:42:58;18.23;;;7.10;;
23155;SDS011;11746;50.876;4.246;2024-02-21T00:45:24;18.30;;;6.88;;
23155;SDS011;11746;50.876;4.246;2024-02-21T00:47:50;18.48;;;7.53;;
23155;SDS011;11746;50.876;4.246;2024-02-21T00:50:15;22.08;;;7.82;;
23155;SDS011;11746;50.876;4.246;2024-02-21T00:52:45;21.17;;;7.38;;
23155;SDS011;11746;50.876;4.246;2024-02-21T00:55:11;16.98;;;7.32;;
23155;SDS011;11746;50.876;4.246;2024-02-21T00:57:39;15.43;;;6.45;;
23155;SDS011;11746;50.876;4.246;2024-02-21T01:00:05;19.67;;;6.65;;
23155;SDS011;11746;50.876;4.246;2024-02-21T01:02:31;21.42;;;7.65;;
23155;SDS011;11746;50.876;4.246;2024-02-21T01:04:57;17.38;;;6.78;;
23155;SDS011;11746;50.876;4.246;2024-02-21T01:07:23;13.07;;;7.22;;
23155;SDS011;11746;50.876;4.246;2024-02-21T01:09:53;17.77;;;6.88;;
23155;SDS011;11746;50.876;4.246;2024-02-21T01:12:21;19.00;;;8.00;;
23155;SDS011;11746;50.876;4.246;2024-02-21T01:14:49;17.40;;;7.20;;
23155;SDS011;11746;50.876;4.246;2024-02-21T01:17:17;18.95;;;6.35;;
23155;SDS011;11746;50.876;4.246;2024-02-21T01:19:43;16.58;;;6.68;;
23155;SDS011;11746;50.876;4.246;2024-02-21T01:22:08;22.10;;;8.20;;
23155;SDS011;11746;50.876;4.246;2024-02-21T01:24:34;18.95;;;7.38;;
23155;SDS011;11746;50.876;4.246;2024-02-21T01:27:02;20.83;;;7.43;;
23155;SDS011;11746;50.876;4.246;2024-02-21T01:29:28;19.90;;;8.23;;
23155;SDS011;11746;50.876;4.246;2024-02-21T01:31:56;16.70;;;7.13;;
23155;SDS011;11746;50.876;4.246;2024-02-21T01:34:24;21.23;;;7.72;;
23155;SDS011;11746;50.876;4.246;2024-02-21T01:36:50;20.98;;;8.00;;
23155;SDS011;11746;50.876;4.246;2024-02-21T01:39:17;16.25;;;7.68;;
23155;SDS011;11746;50.876;4.246;2024-02-21T01:41:43;17.27;;;7.07;;
23155;SDS011;11746;50.876;4.246;2024-02-21T01:44:09;15.77;;;8.18;;
23155;SDS011;11746;50.876;4.246;2024-02-21T01:46:36;15.63;;;7.22;;
23155;SDS011;11746;50.876;4.246;2024-02-21T01:49:02;17.27;;;7.90;;
23155;SDS011;11746;50.876;4.246;2024-02-21T01:51:31;21.75;;;7.40;;
23155;SDS011;11746;50.876;4.246;2024-02-21T01:53:59;18.08;;;7.70;;
23155;SDS011;11746;50.876;4.246;2024-02-21T01:56:27;19.45;;;7.80;;
23155;SDS011;11746;50.876;4.246;2024-02-21T01:58:53;17.67;;;7.57;;
23155;SDS011;11746;50.876;4.246;2024-02-21T02:01:21;19.10;;;7.53;;
23155;SDS011;11746;50.876;4.246;2024-02-21T02:03:47;17.15;;;7.22;;
23155;SDS011;11746;50.876;4.246;2024-02-21T02:06:16;19.75;;;7.55;;
23155;SDS011;11746;50.876;4.246;2024-02-21T02:08:44;16.10;;;7.38;;
23155;SDS011;11746;50.876;4.246;2024-02-21T02:11:13;21.80;;;7.95;;
23155;SDS011;11746;50.876;4.246;2024-02-21T02:13:39;20.10;;;8.32;;
23155;SDS011;11746;50.876;4.246;2024-02-21T02:16:05;17.55;;;7.35;;
23155;SDS011;11746;50.876;4.246;2024-02-21T02:18:31;16.67;;;7.03;;
23155;SDS011;11746;50.876;4.246;2024-02-21T02:20:56;16.55;;;7.05;;
23155;SDS011;11746;50.876;4.246;2024-02-21T02:25:50;15.73;;;7.30;;
23155;SDS011;11746;50.876;4.246;2024-02-21T02:28:19;17.77;;;7.72;;
23155;SDS011;11746;50.876;4.246;2024-02-21T02:30:45;19.58;;;7.38;;
23155;SDS011;11746;50.876;4.246;2024-02-21T02:33:11;20.50;;;6.85;;
23155;SDS011;11746;50.876;4.246;2024-02-21T02:35:37;18.52;;;7.45;;
23155;SDS011;11746;50.876;4.246;2024-02-21T02:38:03;17.58;;;8.25;;
23155;SDS011;11746;50.876;4.246;2024-02-21T02:40:29;17.55;;;7.20;;
23155;SDS011;11746;50.876;4.246;2024-02-21T02:42:58;18.95;;;8.07;;
23155;SDS011;11746;50.876;4.246;2024-02-21T02:45:23;21.38;;;7.63;;
23155;SDS011;11746;50.876;4.246;2024-02-21T02:47:51;16.48;;;8.35;;
23155;SDS011;11746;50.876;4.246;2024-02-21T02:50:17;21.27;;;8.60;;
23155;SDS011;11746;50.876;4.246;2024-02-21T02:52:43;22.52;;;8.55;;
23155;SDS011;11746;50.876;4.246;2024-02-21T02:55:10;18.45;;;8.90;;
23155;SDS011;11746;50.876;4.246;2024-02-21T02:57:36;20.42;;;8.77;;
23155;SDS011;11746;50.876;4.246;2024-02-21T03:00:02;18.25;;;9.07;;
23155;SDS011;11746;50.876;4.246;2024-02-21T03:02:28;19.95;;;8.32;;
23155;SDS011;11746;50.876;4.246;2024-02-21T03:04:56;21.23;;;8.90;;
23155;SDS011;11746;50.876;4.246;2024-02-21T03:07:22;19.08;;;9.07;;
23155;SDS011;11746;50.876;4.246;2024-02-21T03:09:49;19.83;;;9.55;;
23155;SDS011;11746;50.876;4.246;2024-02-21T03:12:15;16.35;;;8.40;;
23155;SDS011;11746;50.876;4.246;2024-02-21T03:14:49;23.67;;;9.18;;
23155;SDS011;11746;50.876;4.246;2024-02-21T03:17:17;19.52;;;9.55;;
23155;SDS011;11746;50.876;4.246;2024-02-21T03:19:45;19.52;;;9.45;;
23155;SDS011;11746;50.876;4.246;2024-02-21T03:22:11;20.02;;;9.23;;
23155;SDS011;11746;50.876;4.246;2024-02-21T03:24:39;25.30;;;9.90;;
23155;SDS011;11746;50.876;4.246;2024-02-21T03:27:06;23.20;;;9.10;;
23155;SDS011;11746;50.876;4.246;2024-02-21T03:29:37;21.02;;;8.93;;
23155;SDS011;11746;50.876;4.246;2024-02-21T03:32:05;22.88;;;9.57;;
23155;SDS011;11746;50.876;4.246;2024-02-21T03:34:31;26.52;;;9.23;;
23155;SDS011;11746;50.876;4.246;2024-02-21T03:36:56;19.30;;;8.95;;
23155;SDS011;11746;50.876;4.246;2024-02-21T03:39:22;20.85;;;9.45;;
23155;SDS011;11746;50.876;4.246;2024-02-21T03:41:47;22.45;;;9.57;;
23155;SDS011;11746;50.876;4.246;2024-02-21T03:44:14;20.13;;;9.05;;
23155;SDS011;11746;50.876;4.246;2024-02-21T03:46:42;18.88;;;9.07;;
23155;SDS011;11746;50.876;4.246;2024-02-21T03:49:11;19.13;;;9.45;;
23155;SDS011;11746;50.876;4.246;2024-02-21T03:51:36;20.58;;;10.07;;
23155;SDS011;11746;50.876;4.246;2024-02-21T03:54:02;24.15;;;9.73;;
23155;SDS011;11746;50.876;4.246;2024-02-21T03:56:30;21.13;;;10.02;;
23155;SDS011;11746;50.876;4.246;2024-02-21T03:58:55;19.10;;;9.35;;
23155;SDS011;11746;50.876;4.246;2024-02-21T04:01:23;21.85;;;9.07;;
23155;SDS011;11746;50.876;4.246;2024-02-21T04:03:51;19.38;;;9.23;;
23155;SDS011;11746;50.876;4.246;2024-02-21T04:06:19;22.98;;;10.05;;
23155;SDS011;11746;50.876;4.246;2024-02-21T04:08:45;20.63;;;9.15;;
23155;SDS011;11746;50.876;4.246;2024-02-21T04:11:13;20.27;;;8.82;;
23155;SDS011;11746;50.876;4.246;2024-02-21T04:13:42;20.65;;;9.77;;
23155;SDS011;11746;50.876;4.246;2024-02-21T04:16:08;21.58;;;9.70;;
23155;SDS011;11746;50.876;4.246;2024-02-21T04:18:33;26.02;;;9.98;;
23155;SDS011;11746;50.876;4.246;2024-02-21T04:21:01;18.38;;;9.75;;
23155;SDS011;11746;50.876;4.246;2024-02-21T04:23:30;22.73;;;10.55;;
23155;SDS011;11746;50.876;4.246;2024-02-21T04:25:55;22.42;;;9.55;;
23155;SDS011;11746;50.876;4.246;2024-02-21T04:28:23;21.60;;;10.00;;
23155;SDS011;11746;50.876;4.246;2024-02-21T04:30:49;25.20;;;10.68;;
23155;SDS011;11746;50.876;4.246;2024-02-21T04:33:15;20.13;;;10.35;;
23155;SDS011;11746;50.876;4.246;2024-02-21T04:35:43;21.30;;;10.25;;
23155;SDS011;11746;50.876;4.246;2024-02-21T04:38:08;23.40;;;10.60;;
23155;SDS011;11746;50.876;4.246;2024-02-21T04:40:36;30.92;;;11.98;;
23155;SDS011;11746;50.876;4.246;2024-02-21T04:43:02;21.73;;;9.90;;
23155;SDS011;11746;50.876;4.246;2024-02-21T04:45:33;25.50;;;10.30;;
23155;SDS011;11746;50.876;4.246;2024-02-21T04:48:01;24.75;;;11.07;;
23155;SDS011;11746;50.876;4.246;2024-02-21T04:50:27;23.63;;;9.48;;
23155;SDS011;11746;50.876;4.246;2024-02-21T04:52:53;19.85;;;9.68;;
23155;SDS011;11746;50.876;4.246;2024-02-21T04:55:21;18.30;;;9.25;;
23155;SDS011;11746;50.876;4.246;2024-02-21T04:57:50;19.40;;;8.98;;
23155;SDS011;11746;50.876;4.246;2024-02-21T05:00:15;19.38;;;8.65;;
23155;SDS011;11746;50.876;4.246;2024-02-21T05:02:41;19.35;;;8.80;;
23155;SDS011;11746;50.876;4.246;2024-02-21T05:05:07;16.05;;;8.68;;
23155;SDS011;11746;50.876;4.246;2024-02-21T05:07:34;21.05;;;8.32;;
23155;SDS011;11746;50.876;4.246;2024-02-21T05:10:02;16.25;;;8.80;;
23155;SDS011;11746;50.876;4.246;2024-02-21T05:12:28;16.50;;;8.60;;
23155;SDS011;11746;50.876;4.246;2024-02-21T05:14:55;21.13;;;9.38;;
23155;SDS011;11746;50.876;4.246;2024-02-21T05:17:20;18.08;;;8.77;;
23155;SDS011;11746;50.876;4.246;2024-02-21T05:19:46;19.83;;;8.80;;
23155;SDS011;11746;50.876;4.246;2024-02-21T05:22:11;15.55;;;8.57;;
23155;SDS011;11746;50.876;4.246;2024-02-21T05:24:39;17.25;;;8.38;;
23155;SDS011;11746;50.876;4.246;2024-02-21T05:27:05;20.85;;;9.02;;
23155;SDS011;11746;50.876;4.246;2024-02-21T05:29:33;19.20;;;8.70;;
23155;SDS011;11746;50.876;4.246;2024-02-21T05:32:01;16.92;;;8.70;;
23155;SDS011;11746;50.876;4.246;2024-02-21T05:34:29;16.15;;;8.20;;
23155;SDS011;11746;50.876;4.246;2024-02-21T05:36:57;18.15;;;8.23;;
23155;SDS011;11746;50.876;4.246;2024-02-21T05:39:25;14.68;;;7.50;;
23155;SDS011;11746;50.876;4.246;2024-02-21T05:41:54;16.77;;;7.97;;
23155;SDS011;11746;50.876;4.246;2024-02-21T05:44:22;13.85;;;7.75;;
23155;SDS011;11746;50.876;4.246;2024-02-21T05:46:48;13.82;;;7.80;;
23155;SDS011;11746;50.876;4.246;2024-02-21T05:49:13;16.95;;;8.23;;
23155;SDS011;11746;50.876;4.246;2024-02-21T05:51:39;16.58;;;7.28;;
23155;SDS011;11746;50.876;4.246;2024-02-21T05:54:05;17.00;;;7.43;;
23155;SDS011;11746;50.876;4.246;2024-02-21T05:56:33;14.95;;;6.57;;
23155;SDS011;11746;50.876;4.246;2024-02-21T05:58:59;16.55;;;6.93;;
23155;SDS011;11746;50.876;4.246;2024-02-21T06:01:24;14.48;;;6.85;;
23155;SDS011;11746;50.876;4.246;2024-02-21T06:03:50;13.52;;;6.60;;
23155;SDS011;11746;50.876;4.246;2024-02-21T06:06:16;13.90;;;7.50;;
23155;SDS011;11746;50.876;4.246;2024-02-21T06:08:46;10.63;;;6.55;;
23155;SDS011;11746;50.876;4.246;2024-02-21T06:11:14;15.98;;;6.47;;
23155;SDS011;11746;50.876;4.246;2024-02-21T06:13:40;11.95;;;6.57;;
23155;SDS011;11746;50.876;4.246;2024-02-21T06:16:08;13.30;;;7.03;;
23155;SDS011;11746;50.876;4.246;2024-02-21T06:18:35;12.38;;;7.10;;
23155;SDS011;11746;50.876;4.246;2024-02-21T06:21:04;10.90;;;6.38;;
23155;SDS011;11746;50.876;4.246;2024-02-21T06:23:30;10.88;;;6.15;;
23155;SDS011;11746;50.876;4.246;2024-02-21T06:25:56;13.07;;;6.80;;
23155;SDS011;11746;50.876;4.246;2024-02-21T06:28:21;12.32;;;7.10;;
23155;SDS011;11746;50.876;4.246;2024-02-21T06:30:49;13.02;;;6.68;;
23155;SDS011;11746;50.876;4.246;2024-02-21T06:33:15;14.70;;;6.90;;
23155;SDS011;11746;50.876;4.246;2024-02-21T06:35:41;11.25;;;7.05;;
23155;SDS011;11746;50.876;4.246;2024-02-21T06:38:13;15.10;;;7.95;;
23155;SDS011;11746;50.876;4.246;2024-02-21T06:40:40;14.23;;;8.15;;
23155;SDS011;11746;50.876;4.246;2024-02-21T06:43:13;12.15;;;8.93;;
23155;SDS011;11746;50.876;4.246;2024-02-21T06:45:41;18.75;;;9.95;;
23155;SDS011;11746;50.876;4.246;2024-02-21T06:48:07;14.77;;;9.60;;
23155;SDS011;11746;50.876;4.246;2024-02-21T06:50:33;18.38;;;10.00;;
23155;SDS011;11746;50.876;4.246;2024-02-21T06:52:58;18.13;;;9.77;;
23155;SDS011;11746;50.876;4.246;2024-02-21T06:55:26;16.42;;;10.43;;
23155;SDS011;11746;50.876;4.246;2024-02-21T06:57:51;15.50;;;10.75;;
23155;SDS011;11746;50.876;4.246;2024-02-21T07:00:17;18.33;;;10.93;;
23155;SDS011;11746;50.876;4.246;2024-02-21T07:02:45;17.67;;;10.95;;
23155;SDS011;11746;50.876;4.246;2024-02-21T07:05:11;17.55;;;10.55;;
23155;SDS011;11746;50.876;4.246;2024-02-21T07:07:36;21.10;;;11.40;;
23155;SDS011;11746;50.876;4.246;2024-02-21T07:10:05;17.23;;;11.38;;
23155;SDS011;11746;50.876;4.246;2024-02-21T07:12:33;19.42;;;12.45;;
23155;SDS011;11746;50.876;4.246;2024-02-21T07:15:03;21.52;;;12.35;;
23155;SDS011;11746;50.876;4.246;2024-02-21T07:17:34;17.73;;;11.18;;
23155;SDS011;11746;50.876;4.246;2024-02-21T07:19:59;18.40;;;11.40;;
23155;SDS011;11746;50.876;4.246;2024-02-21T07:22:26;18.42;;;11.13;;
23155;SDS011;11746;50.876;4.246;2024-02-21T07:24:52;20.60;;;12.18;;
23155;SDS011;11746;50.876;4.246;2024-02-21T07:27:17;22.92;;;14.68;;
23155;SDS011;11746;50.876;4.246;2024-02-21T07:29:43;22.30;;;13.38;;
23155;SDS011;11746;50.876;4.246;2024-02-21T07:32:16;28.13;;;16.85;;
23155;SDS011;11746;50.876;4.246;2024-02-21T07:34:42;30.27;;;18.55;;
23155;SDS011;11746;50.876;4.246;2024-02-21T07:37:08;27.25;;;16.65;;
23155;SDS011;11746;50.876;4.246;2024-02-21T07:39:36;23.85;;;16.20;;
23155;SDS011;11746;50.876;4.246;2024-02-21T07:42:07;24.10;;;15.25;;
23155;SDS011;11746;50.876;4.246;2024-02-21T07:44:35;23.90;;;14.32;;
23155;SDS011;11746;50.876;4.246;2024-02-21T07:47:00;22.27;;;15.52;;
23155;SDS011;11746;50.876;4.246;2024-02-21T07:49:28;25.60;;;14.82;;
23155;SDS011;11746;50.876;4.246;2024-02-21T07:51:56;25.30;;;13.52;;
23155;SDS011;11746;50.876;4.246;2024-02-21T07:54:22;22.88;;;13.55;;
23155;SDS011;11746;50.876;4.246;2024-02-21T07:56:50;18.50;;;11.88;;
23155;SDS011;11746;50.876;4.246;2024-02-21T07:59:15;18.77;;;11.70;;
23155;SDS011;11746;50.876;4.246;2024-02-21T08:01:41;17.58;;;10.48;;
23155;SDS011;11746;50.876;4.246;2024-02-21T08:04:10;19.80;;;10.75;;
23155;SDS011;11746;50.876;4.246;2024-02-21T08:06:38;16.52;;;10.50;;
23155;SDS011;11746;50.876;4.246;2024-02-21T08:09:08;18.35;;;10.07;;
23155;SDS011;11746;50.876;4.246;2024-02-21T08:11:38;19.20;;;9.93;;
23155;SDS011;11746;50.876;4.246;2024-02-21T08:14:06;15.43;;;9.30;;
23155;SDS011;11746;50.876;4.246;2024-02-21T08:16:32;14.38;;;8.38;;
23155;SDS011;11746;50.876;4.246;2024-02-21T08:18:57;15.05;;;9.07;;
23155;SDS011;11746;50.876;4.246;2024-02-21T08:21:24;15.55;;;7.68;;
23155;SDS011;11746;50.876;4.246;2024-02-21T08:23:52;14.63;;;7.97;;
23155;SDS011;11746;50.876;4.246;2024-02-21T08:26:20;16.00;;;7.63;;
23155;SDS011;11746;50.876;4.246;2024-02-21T08:28:46;18.98;;;7.63;;
23155;SDS011;11746;50.876;4.246;2024-02-21T08:31:18;19.35;;;6.72;;
23155;SDS011;11746;50.876;4.246;2024-02-21T08:33:44;11.98;;;6.75;;
23155;SDS011;11746;50.876;4.246;2024-02-21T08:36:19;13.48;;;6.38;;
23155;SDS011;11746;50.876;4.246;2024-02-21T08:38:45;9.50;;;5.50;;
23155;SDS011;11746;50.876;4.246;2024-02-21T08:41:13;12.73;;;5.57;;
23155;SDS011;11746;50.876;4.246;2024-02-21T08:43:39;15.18;;;6.00;;
23155;SDS011;11746;50.876;4.246;2024-02-21T08:46:07;9.07;;;5.90;;
23155;SDS011;11746;50.876;4.246;2024-02-21T08:48:35;11.32;;;4.80;;
23155;SDS011;11746;50.876;4.246;2024-02-21T08:51:03;11.07;;;5.55;;
23155;SDS011;11746;50.876;4.246;2024-02-21T08:53:31;8.57;;;5.18;;
23155;SDS011;11746;50.876;4.246;2024-02-21T08:55:57;10.40;;;4.75;;
23155;SDS011;11746;50.876;4.246;2024-02-21T08:58:26;11.48;;;4.90;;
23155;SDS011;11746;50.876;4.246;2024-02-21T09:00:51;8.68;;;4.32;;
23155;SDS011;11746;50.876;4.246;2024-02-21T09:03:17;8.85;;;4.20;;
23155;SDS011;11746;50.876;4.246;2024-02-21T09:05:45;6.80;;;4.07;;
23155;SDS011;11746;50.876;4.246;2024-02-21T09:08:13;7.93;;;4.20;;
23155;SDS011;11746;50.876;4.246;2024-02-21T09:10:42;9.93;;;4.38;;
23155;SDS011;11746;50.876;4.246;2024-02-21T09:13:09;8.85;;;4.22;;
23155;SDS011;11746;50.876;4.246;2024-02-21T09:15:38;7.00;;;4.50;;
23155;SDS011;11746;50.876;4.246;2024-02-21T09:18:04;8.90;;;3.92;;
23155;SDS011;11746;50.876;4.246;2024-02-21T09:20:29;8.25;;;3.67;;
23155;SDS011;11746;50.876;4.246;2024-02-21T09:22:57;7.93;;;4.35;;
23155;SDS011;11746;50.876;4.246;2024-02-21T09:25:23;9.75;;;4.47;;
23155;SDS011;11746;50.876;4.246;2024-02-21T09:27:48;10.63;;;3.90;;
23155;SDS011;11746;50.876;4.246;2024-02-21T09:30:16;8.15;;;3.75;;
23155;SDS011;11746;50.876;4.246;2024-02-21T09:32:42;10.10;;;3.85;;
23155;SDS011;11746;50.876;4.246;2024-02-21T09:35:08;9.13;;;4.05;;
23155;SDS011;11746;50.876;4.246;2024-02-21T09:37:36;9.68;;;4.43;;
23155;SDS011;11746;50.876;4.246;2024-02-21T09:40:06;8.85;;;4.20;;
23155;SDS011;11746;50.876;4.246;2024-02-21T09:42:41;7.97;;;3.85;;
23155;SDS011;11746;50.876;4.246;2024-02-21T09:45:08;7.45;;;3.45;;
23155;SDS011;11746;50.876;4.246;2024-02-21T09:50:28;11.77;;;3.80;;
23155;SDS011;11746;50.876;4.246;2024-02-21T09:52:56;8.40;;;3.50;;
23155;SDS011;11746;50.876;4.246;2024-02-21T09:55:27;10.73;;;4.25;;
23155;SDS011;11746;50.876;4.246;2024-02-21T09:57:59;7.63;;;3.70;;
23155;SDS011;11746;50.876;4.246;2024-02-21T10:00:29;8.95;;;4.53;;
23155;SDS011;11746;50.876;4.246;2024-02-21T10:02:55;8.85;;;3.65;;
23155;SDS011;11746;50.876;4.246;2024-02-21T10:05:20;9.15;;;3.75;;
23155;SDS011;11746;50.876;4.246;2024-02-21T10:07:52;8.48;;;3.85;;
23155;SDS011;11746;50.876;4.246;2024-02-21T10:10:23;8.85;;;4.05;;
23155;SDS011;11746;50.876;4.246;2024-02-21T10:12:51;11.82;;;4.22;;
23155;SDS011;11746;50.876;4.246;2024-02-21T10:15:23;7.43;;;3.55;;
23155;SDS011;11746;50.876;4.246;2024-02-21T10:17:58;10.57;;;3.80;;
23155;SDS011;11746;50.876;4.246;2024-02-21T10:20:25;9.25;;;3.55;;
23155;SDS011;11746;50.876;4.246;2024-02-21T10:23:03;8.45;;;3.67;;
23155;SDS011;11746;50.876;4.246;2024-02-21T10:25:33;10.50;;;3.20;;
23155;SDS011;11746;50.876;4.246;2024-02-21T10:27:59;9.50;;;3.90;;
23155;SDS011;11746;50.876;4.246;2024-02-21T10:30:25;8.73;;;3.60;;
23155;SDS011;11746;50.876;4.246;2024-02-21T10:32:53;9.57;;;4.15;;
23155;SDS011;11746;50.876;4.246;2024-02-21T10:35:28;8.02;;;4.38;;
23155;SDS011;11746;50.876;4.246;2024-02-21T10:38:04;14.18;;;4.65;;
23155;SDS011;11746;50.876;4.246;2024-02-21T10:42:59;11.95;;;5.18;;
23155;SDS011;11746;50.876;4.246;2024-02-21T10:45:34;8.68;;;4.70;;
23155;SDS011;11746;50.876;4.246;2024-02-21T10:48:13;13.45;;;5.13;;
23155;SDS011;11746;50.876;4.246;2024-02-21T10:51:25;16.50;;;4.95;;
23155;SDS011;11746;50.876;4.246;2024-02-21T10:58:55;11.07;;;4.43;;
23155;SDS011;11746;50.876;4.246;2024-02-21T11:01:23;12.57;;;4.25;;
23155;SDS011;11746;50.876;4.246;2024-02-21T11:03:49;7.22;;;4.18;;
23155;SDS011;11746;50.876;4.246;2024-02-21T11:06:17;13.25;;;4.40;;
23155;SDS011;11746;50.876;4.246;2024-02-21T11:08:44;9.70;;;3.85;;
23155;SDS011;11746;50.876;4.246;2024-02-21T11:11:11;9.23;;;4.53;;
23155;SDS011;11746;50.876;4.246;2024-02-21T11:13:42;15.07;;;4.82;;
23155;SDS011;11746;50.876;4.246;2024-02-21T11:16:12;11.70;;;4.50;;
23155;SDS011;11746;50.876;4.246;2024-02-21T11:18:46;11.60;;;4.90;;
23155;SDS011;11746;50.876;4.246;2024-02-21T11:21:14;9.25;;;5.15;;
23155;SDS011;11746;50.876;4.246;2024-02-21T11:23:40;10.90;;;5.80;;
23155;SDS011;11746;50.876;4.246;2024-02-21T11:26:09;11.02;;;5.72;;
23155;SDS011;11746;50.876;4.246;2024-02-21T11:28:40;10.90;;;5.75;;
23155;SDS011;11746;50.876;4.246;2024-02-21T11:31:12;9.43;;;5.50;;
23155;SDS011;11746;50.876;4.246;2024-02-21T11:33:42;8.50;;;5.35;;
23155;SDS011;11746;50.876;4.246;2024-02-21T11:36:09;12.63;;;5.45;;
23155;SDS011;11746;50.876;4.246;2024-02-21T11:38:35;11.15;;;5.18;;
23155;SDS011;11746;50.876;4.246;2024-02-21T11:41:01;12.00;;;5.53;;
23155;SDS011;11746;50.876;4.246;2024-02-21T11:43:27;12.52;;;4.97;;
23155;SDS011;11746;50.876;4.246;2024-02-21T11:46:01;11.55;;;5.07;;
23155;SDS011;11746;50.876;4.246;2024-02-21T11:48:31;9.50;;;4.80;;
23155;SDS011;11746;50.876;4.246;2024-02-21T11:50:59;9.88;;;4.18;;
23155;SDS011;11746;50.876;4.246;2024-02-21T11:53:26;10.15;;;4.82;;
23155;SDS011;11746;50.876;4.246;2024-02-21T11:55:56;10.65;;;4.80;;
23155;SDS011;11746;50.876;4.246;2024-02-21T11:58:24;13.15;;;6.10;;
23155;SDS011;11746;50.876;4.246;2024-02-21T12:00:52;10.52;;;5.70;;
23155;SDS011;11746;50.876;4.246;2024-02-21T12:03:18;9.55;;;5.00;;
23155;SDS011;11746;50.876;4.246;2024-02-21T12:05:43;10.85;;;4.82;;
23155;SDS011;11746;50.876;4.246;2024-02-21T12:08:11;15.13;;;5.40;;
23155;SDS011;11746;50.876;4.246;2024-02-21T12:10:37;10.02;;;5.25;;
23155;SDS011;11746;50.876;4.246;2024-02-21T12:13:08;14.73;;;5.72;;
23155;SDS011;11746;50.876;4.246;2024-02-21T12:15:34;11.48;;;5.50;;
23155;SDS011;11746;50.876;4.246;2024-02-21T12:18:00;10.00;;;4.88;;
23155;SDS011;11746;50.876;4.246;2024-02-21T12:20:26;13.55;;;6.07;;
23155;SDS011;11746;50.876;4.246;2024-02-21T12:22:52;13.95;;;5.88;;
23155;SDS011;11746;50.876;4.246;2024-02-21T12:25:21;17.52;;;6.25;;
23155;SDS011;11746;50.876;4.246;2024-02-21T12:27:51;13.35;;;6.38;;
23155;SDS011;11746;50.876;4.246;2024-02-21T12:30:17;12.52;;;5.85;;
23155;SDS011;11746;50.876;4.246;2024-02-21T12:32:44;11.13;;;5.10;;
23155;SDS011;11746;50.876;4.246;2024-02-21T12:35:13;13.30;;;5.50;;
23155;SDS011;11746;50.876;4.246;2024-02-21T12:37:46;10.00;;;4.90;;
23155;SDS011;11746;50.876;4.246;2024-02-21T12:40:14;12.80;;;4.95;;
23155;SDS011;11746;50.876;4.246;2024-02-21T12:42:42;13.00;;;4.25;;
23155;SDS011;11746;50.876;4.246;2024-02-21T12:45:08;9.23;;;4.15;;
23155;SDS011;11746;50.876;4.246;2024-02-21T12:47:34;12.70;;;4.38;;
23155;SDS011;11746;50.876;4.246;2024-02-21T12:50:02;9.73;;;4.00;;
23155;SDS011;11746;50.876;4.246;2024-02-21T12:52:28;13.27;;;4.70;;
23155;SDS011;11746;50.876;4.246;2024-02-21T12:54:58;12.35;;;4.60;;
23155;SDS011;11746;50.876;4.246;2024-02-21T12:57:24;11.18;;;4.88;;
23155;SDS011;11746;50.876;4.246;2024-02-21T12:59:50;12.00;;;5.30;;
23155;SDS011;11746;50.876;4.246;2024-02-21T13:02:16;8.93;;;4.50;;
23155;SDS011;11746;50.876;4.246;2024-02-21T13:04:44;12.43;;;4.75;;
23155;SDS011;11746;50.876;4.246;2024-02-21T13:07:10;11.55;;;5.15;;
23155;SDS011;11746;50.876;4.246;2024-02-21T13:09:38;10.18;;;5.13;;
23155;SDS011;11746;50.876;4.246;2024-02-21T13:12:05;11.60;;;5.78;;
23155;SDS011;11746;50.876;4.246;2024-02-21T13:14:31;14.30;;;6.00;;
23155;SDS011;11746;50.876;4.246;2024-02-21T13:17:00;10.90;;;5.00;;
23155;SDS011;11746;50.876;4.246;2024-02-21T13:19:25;10.63;;;4.97;;
23155;SDS011;11746;50.876;4.246;2024-02-21T13:21:53;11.18;;;5.78;;
23155;SDS011;11746;50.876;4.246;2024-02-21T13:24:19;10.05;;;6.20;;
23155;SDS011;11746;50.876;4.246;2024-02-21T13:26:44;15.52;;;6.03;;
23155;SDS011;11746;50.876;4.246;2024-02-21T13:29:12;17.17;;;6.32;;
23155;SDS011;11746;50.876;4.246;2024-02-21T13:31:38;12.75;;;5.10;;
23155;SDS011;11746;50.876;4.246;2024-02-21T13:34:06;9.98;;;4.90;;
23155;SDS011;11746;50.876;4.246;2024-02-21T13:36:31;10.77;;;4.65;;
23155;SDS011;11746;50.876;4.246;2024-02-21T13:38:57;10.07;;;4.95;;
23155;SDS011;11746;50.876;4.246;2024-02-21T13:41:23;12.23;;;5.38;;
23155;SDS011;11746;50.876;4.246;2024-02-21T13:43:51;10.65;;;5.28;;
23155;SDS011;11746;50.876;4.246;2024-02-21T13:46:16;8.75;;;4.60;;
23155;SDS011;11746;50.876;4.246;2024-02-21T13:48:44;11.98;;;4.70;;
23155;SDS011;11746;50.876;4.246;2024-02-21T13:51:10;8.88;;;4.70;;
23155;SDS011;11746;50.876;4.246;2024-02-21T13:53:36;9.32;;;4.47;;
23155;SDS011;11746;50.876;4.246;2024-02-21T13:56:04;13.07;;;5.18;;
23155;SDS011;11746;50.876;4.246;2024-02-21T13:58:30;10.20;;;5.03;;
23155;SDS011;11746;50.876;4.246;2024-02-21T14:00:56;11.73;;;5.25;;
23155;SDS011;11746;50.876;4.246;2024-02-21T14:03:22;10.60;;;5.32;;
23155;SDS011;11746;50.876;4.246;2024-02-21T14:05:47;9.48;;;4.53;;
23155;SDS011;11746;50.876;4.246;2024-02-21T14:08:16;10.60;;;4.43;;
23155;SDS011;11746;50.876;4.246;2024-02-21T14:10:44;9.65;;;4.43;;
23155;SDS011;11746;50.876;4.246;2024-02-21T14:13:12;7.85;;;4.00;;
23155;SDS011;11746;50.876;4.246;2024-02-21T14:15:39;9.23;;;4.53;;
23155;SDS011;11746;50.876;4.246;2024-02-21T14:18:07;8.15;;;4.53;;
23155;SDS011;11746;50.876;4.246;2024-02-21T14:20:34;9.70;;;4.53;;
23155;SDS011;11746;50.876;4.246;2024-02-21T14:23:02;8.93;;;4.57;;
23155;SDS011;11746;50.876;4.246;2024-02-21T14:25:31;11.25;;;4.80;;
23155;SDS011;11746;50.876;4.246;2024-02-21T14:27:58;8.25;;;4.65;;
23155;SDS011;11746;50.876;4.246;2024-02-21T14:30:25;8.40;;;4.47;;
23155;SDS011;11746;50.876;4.246;2024-02-21T14:32:53;10.18;;;4.38;;
23155;SDS011;11746;50.876;4.246;2024-02-21T14:35:20;10.52;;;4.38;;
23155;SDS011;11746;50.876;4.246;2024-02-21T14:37:48;7.18;;;4.05;;
23155;SDS011;11746;50.876;4.246;2024-02-21T14:40:20;7.20;;;3.97;;
23155;SDS011;11746;50.876;4.246;2024-02-21T14:42:48;8.57;;;3.83;;
23155;SDS011;11746;50.876;4.246;2024-02-21T14:45:14;7.95;;;4.32;;
23155;SDS011;11746;50.876;4.246;2024-02-21T14:47:42;7.15;;;3.95;;
23155;SDS011;11746;50.876;4.246;2024-02-21T14:50:12;6.32;;;4.05;;